createdAt,value
2017-10-06T00:02:22.280Z,98550.55
2017-10-06T00:04:48.497Z,98554.15
2017-10-06T00:07:14.744Z,98557.05
2017-10-06T00:09:40.978Z,98550.46
2017-10-06T00:12:07.223Z,98541.91
2017-10-06T00:14:33.455Z,98538.38
2017-10-06T00:16:59.689Z,98537.30
2017-10-06T00:19:25.930Z,98521.10
2017-10-06T00:21:52.131Z,98522.10
2017-10-06T00:24:18.410Z,98522.84
2017-10-06T00:26:44.615Z,98519.09
2017-10-06T00:29:10.805Z,98510.05
2017-10-06T00:31:37.004Z,98512.15
2017-10-06T00:34:03.213Z,98507.68
2017-10-06T00:36:29.462Z,98509.11
2017-10-06T00:38:55.654Z,98504.83
2017-10-06T00:41:21.878Z,98495.84
2017-10-06T00:43:48.108Z,98496.58
2017-10-06T00:46:14.328Z,98497.39
2017-10-06T00:48:40.585Z,98499.56
2017-10-06T00:51:06.792Z,98493.67
2017-10-06T00:53:32.993Z,98496.53
2017-10-06T00:55:59.214Z,98486.88
2017-10-06T00:58:25.423Z,98491.77
2017-10-06T01:00:51.667Z,98480.84
2017-10-06T01:03:17.885Z,98476.62
2017-10-06T01:05:44.089Z,98469.58
2017-10-06T01:08:10.285Z,98470.08
2017-10-06T01:10:36.494Z,98474.36
2017-10-06T01:13:02.735Z,98467.79
2017-10-06T01:15:28.943Z,98464.55
2017-10-06T01:17:55.136Z,98470.16
2017-10-06T01:20:21.337Z,98469.11
2017-10-06T01:22:47.558Z,98459.86
2017-10-06T01:25:13.827Z,98460.27
2017-10-06T01:27:40.025Z,98462.56
2017-10-06T01:30:06.255Z,98461.84
2017-10-06T01:32:32.477Z,98467.23
2017-10-06T01:34:58.705Z,98458.95
2017-10-06T01:37:24.952Z,98454.38
2017-10-06T01:39:51.156Z,98455.30
2017-10-06T01:42:17.365Z,98453.64
2017-10-06T01:44:43.594Z,98449.94
2017-10-06T01:47:09.816Z,98452.30
2017-10-06T01:49:36.052Z,98448.83
2017-10-06T01:52:02.376Z,98446.74
2017-10-06T01:54:28.596Z,98449.64
2017-10-06T01:56:54.806Z,98443.77
2017-10-06T01:59:21.033Z,98445.55
2017-10-06T02:01:47.287Z,98451.27
2017-10-06T02:04:13.499Z,98442.80
2017-10-06T02:06:39.700Z,98448.64
2017-10-06T02:09:05.917Z,98443.84
2017-10-06T02:11:32.120Z,98441.58
2017-10-06T02:13:58.390Z,98443.08
2017-10-06T02:16:24.577Z,98436.81
2017-10-06T02:18:50.762Z,98442.72
2017-10-06T02:21:16.988Z,98440.55
2017-10-06T02:23:43.220Z,98437.63
2017-10-06T02:26:09.488Z,98440.88
2017-10-06T02:28:35.698Z,98439.52
2017-10-06T02:31:01.923Z,98441.41
2017-10-06T02:33:28.138Z,98435.61
2017-10-06T02:35:54.351Z,98443.94
2017-10-06T02:38:20.600Z,98437.52
2017-10-06T02:40:46.801Z,98434.78
2017-10-06T02:43:13.012Z,98440.36
2017-10-06T02:45:39.202Z,98438.95
2017-10-06T02:48:05.409Z,98434.05
2017-10-06T02:50:31.658Z,98438.07
2017-10-06T02:52:57.859Z,98438.88
2017-10-06T02:55:24.088Z,98440.20
2017-10-06T02:57:50.416Z,98441.45
2017-10-06T03:00:16.691Z,98447.16
2017-10-06T03:02:42.958Z,98446.55
2017-10-06T03:05:09.193Z,98450.06
2017-10-06T03:07:35.429Z,98449.04
2017-10-06T03:10:02.243Z,98451.80
2017-10-06T03:12:28.427Z,98453.79
2017-10-06T03:14:54.665Z,98451.66
2017-10-06T03:17:20.869Z,98445.59
2017-10-06T03:19:47.067Z,98451.41
2017-10-06T03:22:13.248Z,98455.39
2017-10-06T03:24:39.438Z,98449.50
2017-10-06T03:27:05.658Z,98451.45
2017-10-06T03:29:31.859Z,98454.36
2017-10-06T03:31:58.073Z,98452.05
2017-10-06T03:34:24.271Z,98460.92
2017-10-06T03:36:50.486Z,98456.95
2017-10-06T03:39:16.724Z,98459.72
2017-10-06T03:41:42.938Z,98467.23
2017-10-06T03:44:09.115Z,98470.75
2017-10-06T03:46:35.324Z,98462.02
2017-10-06T03:49:01.534Z,98466.88
2017-10-06T03:51:27.800Z,98468.69
2017-10-06T03:53:54.039Z,98466.95
2017-10-06T03:56:20.235Z,98472.12
2017-10-06T03:58:46.424Z,98471.17
2017-10-06T04:01:12.640Z,98469.25
2017-10-06T04:03:39.046Z,98474.33
2017-10-06T04:06:05.236Z,98472.20
2017-10-06T04:08:31.481Z,98467.41
2017-10-06T04:10:57.699Z,98472.45
2017-10-06T04:13:23.914Z,98472.98
2017-10-06T04:15:50.163Z,98477.05
2017-10-06T04:18:16.365Z,98477.97
2017-10-06T04:20:42.577Z,98479.01
2017-10-06T04:23:08.781Z,98475.86
2017-10-06T04:25:34.979Z,98474.27
2017-10-06T04:28:01.231Z,98473.69
2017-10-06T04:30:27.432Z,98476.18
2017-10-06T04:32:53.621Z,98476.60
2017-10-06T04:35:19.825Z,98480.75
2017-10-06T04:37:46.049Z,98472.20
2017-10-06T04:40:12.290Z,98482.45
2017-10-06T04:42:38.495Z,98485.77
2017-10-06T04:45:04.759Z,98489.47
2017-10-06T04:47:30.988Z,98485.69
2017-10-06T04:49:57.191Z,98490.94
2017-10-06T04:52:23.393Z,98493.99
2017-10-06T04:54:49.633Z,98489.91
2017-10-06T04:57:15.872Z,98493.42
2017-10-06T04:59:42.116Z,98495.14
2017-10-06T05:02:08.311Z,98501.73
2017-10-06T05:04:34.534Z,98489.66
2017-10-06T05:07:00.730Z,98494.22
2017-10-06T05:09:26.949Z,98490.50
2017-10-06T05:11:53.189Z,98493.00
2017-10-06T05:14:19.375Z,98490.47
2017-10-06T05:16:45.580Z,98497.67
2017-10-06T05:19:11.784Z,98487.23
2017-10-06T05:21:38.000Z,98491.83
2017-10-06T05:24:04.231Z,98491.07
2017-10-06T05:26:30.471Z,98492.20
2017-10-06T05:28:56.677Z,98493.58
2017-10-06T05:31:22.919Z,98484.85
2017-10-06T05:33:49.182Z,98494.05
2017-10-06T05:36:15.497Z,98486.54
2017-10-06T05:38:41.836Z,98483.49
2017-10-06T05:41:08.155Z,98488.69
2017-10-06T05:43:34.375Z,98475.80
2017-10-06T05:46:00.578Z,98480.09
2017-10-06T05:48:26.829Z,98474.77
2017-10-06T05:50:53.011Z,98480.65
2017-10-06T05:53:19.296Z,98476.80
2017-10-06T05:55:45.528Z,98470.81
2017-10-06T05:58:11.763Z,98474.56
2017-10-06T06:00:38.075Z,98477.91
2017-10-06T06:03:04.376Z,98480.89
2017-10-06T06:05:30.602Z,98477.69
2017-10-06T06:07:56.974Z,98474.34
2017-10-06T06:10:23.318Z,98473.75
2017-10-06T06:12:49.548Z,98480.42
2017-10-06T06:15:15.756Z,98472.68
2017-10-06T06:17:42.024Z,98470.47
2017-10-06T06:20:08.220Z,98474.83
2017-10-06T06:22:34.433Z,98474.92
2017-10-06T06:25:00.716Z,98483.67
2017-10-06T06:27:26.918Z,98478.22
2017-10-06T06:29:53.142Z,98476.23
2017-10-06T06:32:19.390Z,98471.45
2017-10-06T06:34:45.634Z,98477.66
2017-10-06T06:37:11.895Z,98475.69
2017-10-06T06:39:38.103Z,98468.65
2017-10-06T06:42:04.309Z,98464.00
2017-10-06T06:44:30.525Z,98466.03
2017-10-06T06:46:56.713Z,98473.80
2017-10-06T06:49:23.034Z,98465.39
2017-10-06T06:51:49.262Z,98461.10
2017-10-06T06:54:15.447Z,98461.61
2017-10-06T06:56:41.673Z,98449.19
2017-10-06T06:59:07.866Z,98441.06
2017-10-06T07:01:34.078Z,98437.77
2017-10-06T07:04:00.279Z,98437.55
2017-10-06T07:06:26.517Z,98437.69
2017-10-06T07:08:52.756Z,98433.97
2017-10-06T07:11:18.949Z,98430.98
2017-10-06T07:13:45.167Z,98427.48
2017-10-06T07:16:11.350Z,98424.76
2017-10-06T07:18:37.516Z,98426.91
2017-10-06T07:21:03.765Z,98423.30
2017-10-06T07:23:29.955Z,98425.41
2017-10-06T07:25:56.141Z,98426.71
2017-10-06T07:28:22.350Z,98419.59
2017-10-06T07:30:48.532Z,98410.19
2017-10-06T07:33:14.764Z,98414.05
2017-10-06T07:35:41.034Z,98407.99
2017-10-06T07:38:07.227Z,98407.67
2017-10-06T07:40:33.423Z,98407.98
2017-10-06T07:42:59.625Z,98405.81
2017-10-06T07:45:25.913Z,98397.88
2017-10-06T07:47:52.106Z,98396.05
2017-10-06T07:50:18.287Z,98396.27
2017-10-06T07:52:44.483Z,98400.77
2017-10-06T07:55:10.667Z,98393.87
2017-10-06T07:57:36.922Z,98388.84
2017-10-06T08:00:03.120Z,98381.23
2017-10-06T08:02:29.318Z,98374.54
2017-10-06T08:04:55.516Z,98371.53
2017-10-06T08:07:21.713Z,98376.89
2017-10-06T08:09:51.708Z,98368.88
2017-10-06T08:12:17.902Z,98369.77
2017-10-06T08:14:44.102Z,98369.39
2017-10-06T08:17:10.315Z,98367.16
2017-10-06T08:19:36.540Z,98368.78
2017-10-06T08:22:02.807Z,98370.03
2017-10-06T08:24:29.023Z,98364.16
2017-10-06T08:26:55.216Z,98356.17
2017-10-06T08:29:21.412Z,98349.45
2017-10-06T08:31:47.666Z,98352.98
2017-10-06T08:34:13.886Z,98350.62
2017-10-06T08:36:40.068Z,98349.33
2017-10-06T08:39:06.255Z,98345.80
2017-10-06T08:41:32.457Z,98347.91
2017-10-06T08:43:58.662Z,98353.47
2017-10-06T08:46:24.887Z,98350.44
2017-10-06T08:48:51.106Z,98341.70
2017-10-06T08:51:17.334Z,98349.17
2017-10-06T08:53:43.568Z,98338.10
2017-10-06T08:56:09.773Z,98347.72
2017-10-06T08:58:35.994Z,98351.72
2017-10-06T09:01:02.177Z,98357.86
2017-10-06T09:03:28.385Z,98347.34
2017-10-06T09:05:54.785Z,98348.39
2017-10-06T09:08:21.998Z,98341.17
2017-10-06T09:10:48.195Z,98333.70
2017-10-06T09:13:14.397Z,98341.92
2017-10-06T09:15:40.606Z,98330.91
2017-10-06T09:18:06.830Z,98337.02
2017-10-06T09:20:33.051Z,98334.62
2017-10-06T09:22:59.269Z,98332.13
2017-10-06T09:25:25.468Z,98331.80
2017-10-06T09:27:51.736Z,98332.99
2017-10-06T09:30:17.969Z,98333.67
2017-10-06T09:32:44.169Z,98327.41
2017-10-06T09:35:10.363Z,98323.23
2017-10-06T09:37:36.621Z,98322.67
2017-10-06T09:40:02.836Z,98320.31
2017-10-06T09:42:29.053Z,98315.61
2017-10-06T09:44:55.299Z,98325.18
2017-10-06T09:47:21.502Z,98316.27
2017-10-06T09:49:47.715Z,98312.92
2017-10-06T09:52:13.927Z,98310.10
2017-10-06T09:54:40.154Z,98302.41
2017-10-06T09:57:06.347Z,98305.28
2017-10-06T09:59:32.555Z,98299.22
2017-10-06T10:01:58.752Z,98301.20
2017-10-06T10:04:25.007Z,98294.22
2017-10-06T10:06:51.232Z,98288.38
2017-10-06T10:09:17.451Z,98300.78
2017-10-06T10:11:43.647Z,98293.09
2017-10-06T10:14:09.821Z,98298.73
2017-10-06T10:16:36.011Z,98292.59
2017-10-06T10:19:02.224Z,98292.11
2017-10-06T10:21:28.427Z,98299.67
2017-10-06T10:23:54.636Z,98294.80
2017-10-06T10:26:20.856Z,98288.95
2017-10-06T10:28:47.055Z,98283.56
2017-10-06T10:31:13.292Z,98282.75
2017-10-06T10:33:39.483Z,98291.52
2017-10-06T10:36:05.664Z,98287.00
2017-10-06T10:38:31.850Z,98283.52
2017-10-06T10:40:58.037Z,98281.18
2017-10-06T10:43:24.270Z,98280.45
2017-10-06T10:45:50.469Z,98282.22
2017-10-06T10:48:17.405Z,98282.66
2017-10-06T10:50:43.627Z,98280.36
2017-10-06T10:53:09.864Z,98275.52
2017-10-06T10:55:36.069Z,98279.90
2017-10-06T10:58:02.273Z,98275.58
2017-10-06T11:00:28.472Z,98274.78
2017-10-06T11:02:54.739Z,98274.77
2017-10-06T11:05:20.928Z,98266.62
2017-10-06T11:07:47.132Z,98261.82
2017-10-06T11:10:13.328Z,98266.27
2017-10-06T11:12:39.544Z,98263.81
2017-10-06T11:15:05.818Z,98266.52
2017-10-06T11:17:32.031Z,98258.34
2017-10-06T11:19:58.238Z,98255.11
2017-10-06T11:22:24.449Z,98262.28
2017-10-06T11:24:50.651Z,98258.22
2017-10-06T11:27:16.881Z,98260.75
2017-10-06T11:29:43.072Z,98257.79
2017-10-06T11:32:09.269Z,98254.06
2017-10-06T11:34:35.493Z,98253.58
2017-10-06T11:37:01.694Z,98256.95
2017-10-06T11:39:27.928Z,98256.56
2017-10-06T11:41:54.188Z,98255.24
2017-10-06T11:44:20.384Z,98259.47
2017-10-06T11:46:46.577Z,98255.20
2017-10-06T11:49:12.786Z,98258.89
2017-10-06T11:51:39.038Z,98258.92
2017-10-06T11:54:05.245Z,98256.18
2017-10-06T11:56:31.468Z,98260.53
2017-10-06T11:58:57.701Z,98264.38
2017-10-06T12:01:23.893Z,98259.27
2017-10-06T12:03:50.114Z,98257.03
2017-10-06T12:06:16.319Z,98253.53
2017-10-06T12:08:42.551Z,98250.30
2017-10-06T12:11:08.781Z,98254.99
2017-10-06T12:13:35.009Z,98252.75
2017-10-06T12:16:01.213Z,98253.90
2017-10-06T12:18:27.442Z,98246.18
2017-10-06T12:20:53.639Z,98247.20
2017-10-06T12:23:19.882Z,98256.44
2017-10-06T12:25:46.128Z,98254.02
2017-10-06T12:28:12.380Z,98249.38
2017-10-06T12:30:38.581Z,98238.72
2017-10-06T12:33:04.773Z,98246.63
2017-10-06T12:35:31.045Z,98249.45
2017-10-06T12:37:57.235Z,98248.31
2017-10-06T12:40:23.453Z,98253.83
2017-10-06T12:42:49.668Z,98254.27
2017-10-06T12:45:15.851Z,98256.69
2017-10-06T12:47:42.086Z,98260.83
2017-10-06T12:50:08.288Z,98256.11
2017-10-06T12:52:36.510Z,98261.02
2017-10-06T12:55:02.743Z,98262.97
2017-10-06T12:57:28.949Z,98260.76
2017-10-06T12:59:55.267Z,98266.95
2017-10-06T13:02:21.586Z,98272.66
2017-10-06T13:04:47.783Z,98271.86
2017-10-06T13:07:14.045Z,98270.02
2017-10-06T13:09:40.264Z,98273.69
2017-10-06T13:12:06.477Z,98272.84
2017-10-06T13:14:32.691Z,98270.48
2017-10-06T13:17:00.693Z,98271.33
2017-10-06T13:19:27.964Z,98277.33
2017-10-06T13:21:54.174Z,98273.84
2017-10-06T13:24:20.396Z,98269.96
2017-10-06T13:26:46.673Z,98266.03
2017-10-06T13:29:12.878Z,98262.92
2017-10-06T13:31:39.111Z,98270.39
2017-10-06T13:34:05.337Z,98263.86
2017-10-06T13:36:31.532Z,98260.38
2017-10-06T13:38:57.849Z,98256.09
2017-10-06T13:41:24.085Z,98259.62
2017-10-06T13:43:50.344Z,98254.13
2017-10-06T13:46:16.553Z,98262.68
2017-10-06T13:48:42.775Z,98259.45
2017-10-06T13:51:08.989Z,98261.03
2017-10-06T13:53:35.235Z,98261.55
2017-10-06T13:56:01.484Z,98267.65
2017-10-06T13:58:27.666Z,98265.08
2017-10-06T14:00:53.882Z,98269.96
2017-10-06T14:03:20.121Z,98270.71
2017-10-06T14:05:46.322Z,98273.06
2017-10-06T14:08:12.519Z,98271.42
2017-10-06T14:10:38.725Z,98272.42
2017-10-06T14:13:04.943Z,98281.47
2017-10-06T14:15:31.164Z,98280.55
2017-10-06T14:17:57.366Z,98279.67
2017-10-06T14:20:23.613Z,98281.23
2017-10-06T14:22:49.798Z,98290.64
2017-10-06T14:25:15.995Z,98294.54
2017-10-06T14:27:42.245Z,98300.92
2017-10-06T14:30:08.452Z,98305.02
2017-10-06T14:32:34.666Z,98305.05
2017-10-06T14:35:00.889Z,98307.45
2017-10-06T14:37:27.091Z,98308.09
2017-10-06T14:39:53.329Z,98309.16
2017-10-06T14:42:19.533Z,98311.42
2017-10-06T14:44:45.753Z,98305.88
2017-10-06T14:47:11.965Z,98310.27
2017-10-06T14:49:38.188Z,98313.86
2017-10-06T14:52:04.442Z,98319.28
2017-10-06T14:54:30.695Z,98320.98
2017-10-06T14:56:56.931Z,98327.45
2017-10-06T14:59:23.135Z,98326.27
2017-10-06T15:01:49.370Z,98350.39
2017-10-06T15:04:15.633Z,98353.35
2017-10-06T15:06:41.883Z,98351.58
2017-10-06T15:09:08.086Z,98368.48
2017-10-06T15:11:34.295Z,98362.06
2017-10-06T15:14:00.501Z,98366.02
2017-10-06T15:16:26.737Z,98371.61
2017-10-06T15:18:52.942Z,98373.38
2017-10-06T15:21:19.154Z,98373.23
2017-10-06T15:23:45.378Z,98381.94
2017-10-06T15:26:11.575Z,98379.52
2017-10-06T15:28:37.826Z,98383.21
2017-10-06T15:31:04.070Z,98382.53
2017-10-06T15:33:30.305Z,98390.98
2017-10-06T15:35:56.518Z,98382.97
2017-10-06T15:38:22.756Z,98389.98
2017-10-06T15:40:48.974Z,98392.08
2017-10-06T15:43:15.195Z,98392.83
2017-10-06T15:45:41.396Z,98389.22
2017-10-06T15:48:07.644Z,98402.96
2017-10-06T15:50:33.841Z,98405.56
2017-10-06T15:53:00.045Z,98409.80
2017-10-06T15:55:26.294Z,98407.37
2017-10-06T15:57:52.492Z,98408.94
2017-10-06T16:00:18.701Z,98409.37
2017-10-06T16:02:44.901Z,98416.02
2017-10-06T16:05:11.113Z,98420.88
2017-10-06T16:07:37.338Z,98424.85
2017-10-06T16:10:03.538Z,98428.97
2017-10-06T16:12:29.739Z,98434.38
2017-10-06T16:14:56.020Z,98433.47
2017-10-06T16:17:22.227Z,98437.25
2017-10-06T16:19:48.428Z,98434.16
2017-10-06T16:22:14.632Z,98434.08
2017-10-06T16:24:40.829Z,98443.69
2017-10-06T16:27:07.121Z,98449.04
2017-10-06T16:29:33.317Z,98465.52
2017-10-06T16:31:59.519Z,98465.77
2017-10-06T16:34:26.108Z,98466.50
2017-10-06T16:36:52.389Z,98472.62
2017-10-06T16:39:18.790Z,98466.07
2017-10-06T16:41:44.973Z,98469.97
2017-10-06T16:44:11.163Z,98467.36
2017-10-06T16:46:37.408Z,98466.97
2017-10-06T16:49:03.620Z,98461.39
2017-10-06T16:51:29.848Z,98462.95
2017-10-06T16:53:56.070Z,98458.81
2017-10-06T16:56:22.818Z,98466.34
2017-10-06T16:58:49.123Z,98473.28
2017-10-06T17:01:15.346Z,98479.41
2017-10-06T17:03:41.605Z,98491.81
2017-10-06T17:06:07.809Z,98490.09
2017-10-06T17:08:34.046Z,98493.36
2017-10-06T17:11:00.287Z,98488.88
2017-10-06T17:13:26.603Z,98487.53
2017-10-06T17:15:52.804Z,98489.33
2017-10-06T17:18:19.009Z,98496.52
2017-10-06T17:20:45.300Z,98504.42
2017-10-06T17:23:11.529Z,98505.07
2017-10-06T17:25:37.750Z,98512.20
2017-10-06T17:28:03.958Z,98503.42
2017-10-06T17:30:30.307Z,98500.72
2017-10-06T17:32:56.512Z,98504.45
2017-10-06T17:35:22.736Z,98506.63
2017-10-06T17:40:22.693Z,98505.09
2017-10-06T17:42:48.877Z,98505.88
2017-10-06T17:45:15.087Z,98511.43
2017-10-06T17:47:41.293Z,98508.14
2017-10-06T17:50:07.495Z,98509.36
2017-10-06T17:52:33.716Z,98513.77
2017-10-06T17:54:59.962Z,98515.91
2017-10-06T17:57:26.163Z,98515.34
2017-10-06T17:59:52.394Z,98514.50
2017-10-06T18:02:18.671Z,98512.41
2017-10-06T18:04:44.992Z,98512.55
2017-10-06T18:07:11.228Z,98508.10
2017-10-06T18:09:38.323Z,98510.59
2017-10-06T18:12:04.593Z,98514.63
2017-10-06T18:14:30.822Z,98516.11
2017-10-06T18:16:57.691Z,98518.91
2017-10-06T18:19:24.201Z,98524.58
2017-10-06T18:21:50.414Z,98530.48
2017-10-06T18:24:16.614Z,98534.11
2017-10-06T18:26:42.826Z,98536.51
2017-10-06T18:29:09.018Z,98545.19
2017-10-06T18:31:35.323Z,98546.27
2017-10-06T18:34:01.528Z,98551.71
2017-10-06T18:36:27.749Z,98559.47
2017-10-06T18:38:54.016Z,98565.22
2017-10-06T18:41:20.245Z,98569.74
2017-10-06T18:43:46.454Z,98571.44
2017-10-06T18:46:12.652Z,98572.45
2017-10-06T18:48:38.877Z,98566.17
2017-10-06T18:51:05.115Z,98577.97
2017-10-06T18:53:31.328Z,98575.54
2017-10-06T18:55:57.536Z,98579.25
2017-10-06T18:58:23.745Z,98579.88
2017-10-06T19:00:49.958Z,98586.16
2017-10-06T19:03:16.167Z,98594.54
2017-10-06T19:05:42.360Z,98600.07
2017-10-06T19:08:08.581Z,98608.81
2017-10-06T19:10:34.817Z,98610.88
2017-10-06T19:13:01.031Z,98608.05
2017-10-06T19:15:27.246Z,98618.20
2017-10-06T19:17:53.464Z,98618.69
2017-10-06T19:20:19.695Z,98622.57
2017-10-06T19:22:45.957Z,98628.41
2017-10-06T19:25:12.164Z,98632.60
2017-10-06T19:27:38.362Z,98633.30
2017-10-06T19:30:04.607Z,98637.79
2017-10-06T19:32:30.839Z,98640.69
2017-10-06T19:34:57.033Z,98655.45
2017-10-06T19:37:23.245Z,98664.53
2017-10-06T19:39:49.450Z,98662.06
2017-10-06T19:42:15.693Z,98668.27
2017-10-06T19:44:41.905Z,98673.92
2017-10-06T19:47:08.095Z,98671.62
2017-10-06T19:49:34.275Z,98681.56
2017-10-06T19:52:00.503Z,98680.80
2017-10-06T19:54:26.733Z,98687.45
2017-10-06T19:56:52.941Z,98683.47
2017-10-06T19:59:19.138Z,98698.20
2017-10-06T20:01:45.345Z,98699.53
2017-10-06T20:04:12.007Z,98689.38
2017-10-06T20:06:38.335Z,98704.75
2017-10-06T20:09:04.516Z,98703.38
2017-10-06T20:11:30.773Z,98708.81
2017-10-06T20:13:57.042Z,98709.14
2017-10-06T20:16:23.258Z,98712.03
2017-10-06T20:18:49.506Z,98717.15
2017-10-06T20:21:15.756Z,98716.50
2017-10-06T20:23:41.960Z,98725.12
2017-10-06T20:26:08.173Z,98727.30
2017-10-06T20:28:34.443Z,98735.53
2017-10-06T20:31:00.675Z,98738.85
2017-10-06T20:33:26.894Z,98738.48
2017-10-06T20:35:53.079Z,98747.67
2017-10-06T20:38:19.327Z,98748.30
2017-10-06T20:40:45.537Z,98756.94
2017-10-06T20:43:11.765Z,98762.92
2017-10-06T20:45:37.986Z,98758.70
2017-10-06T20:48:04.597Z,98762.41
2017-10-06T20:50:30.829Z,98763.97
2017-10-06T20:52:57.039Z,98764.30
2017-10-06T20:55:23.277Z,98767.89
2017-10-06T20:57:49.492Z,98766.30
2017-10-06T21:00:15.741Z,98763.02
2017-10-06T21:02:41.949Z,98770.61
2017-10-06T21:05:08.145Z,98765.55
2017-10-06T21:07:34.740Z,98777.80
2017-10-06T21:10:01.027Z,98756.51
2017-10-06T21:12:27.300Z,98771.69
2017-10-06T21:14:53.525Z,98777.27
2017-10-06T21:17:19.728Z,98776.11
2017-10-06T21:19:45.970Z,98779.23
2017-10-06T21:22:12.164Z,98776.23
2017-10-06T21:24:38.393Z,98778.77
2017-10-06T21:27:04.592Z,98787.86
2017-10-06T21:29:30.814Z,98782.23
2017-10-06T21:31:57.068Z,98791.70
2017-10-06T21:34:23.259Z,98801.47
2017-10-06T21:36:49.474Z,98799.39
2017-10-06T21:39:15.678Z,98809.28
2017-10-06T21:41:41.899Z,98812.11
2017-10-06T21:44:08.144Z,98808.14
2017-10-06T21:46:34.373Z,98805.49
2017-10-06T21:49:00.577Z,98803.83
2017-10-06T21:51:26.783Z,98799.43
2017-10-06T21:53:52.994Z,98808.14
2017-10-06T21:56:19.211Z,98808.77
2017-10-06T21:58:45.397Z,98810.78
2017-10-06T22:01:11.597Z,98821.95
2017-10-06T22:03:37.810Z,98826.51
2017-10-06T22:06:04.022Z,98821.78
2017-10-06T22:08:30.255Z,98820.80
2017-10-06T22:10:56.475Z,98824.63
2017-10-06T22:13:22.700Z,98825.38
2017-10-06T22:15:48.925Z,98822.97
2017-10-06T22:18:15.150Z,98819.34
2017-10-06T22:20:41.392Z,98816.31
2017-10-06T22:23:07.598Z,98818.48
2017-10-06T22:25:33.825Z,98819.85
2017-10-06T22:28:00.080Z,98829.03
2017-10-06T22:30:26.325Z,98827.57
2017-10-06T22:32:52.565Z,98818.66
2017-10-06T22:35:18.778Z,98824.79
2017-10-06T22:37:45.002Z,98818.86
2017-10-06T22:40:11.211Z,98832.45
2017-10-06T22:42:37.438Z,98820.14
2017-10-06T22:45:03.696Z,98824.12
2017-10-06T22:47:29.901Z,98822.02
2017-10-06T22:49:56.100Z,98829.59
2017-10-06T22:52:22.292Z,98832.91
2017-10-06T22:54:48.495Z,98828.64
2017-10-06T22:57:14.749Z,98839.37
2017-10-06T22:59:40.952Z,98845.47
2017-10-06T23:02:07.156Z,98840.48
2017-10-06T23:04:33.352Z,98847.07
2017-10-06T23:06:59.670Z,98843.70
2017-10-06T23:09:25.993Z,98850.87
2017-10-06T23:11:52.210Z,98846.84
2017-10-06T23:14:18.442Z,98850.63
2017-10-06T23:16:44.665Z,98853.70
2017-10-06T23:19:10.897Z,98843.95
2017-10-06T23:21:37.176Z,98846.83
2017-10-06T23:24:03.443Z,98843.45
2017-10-06T23:26:29.687Z,98843.41
2017-10-06T23:28:55.932Z,98846.70
2017-10-06T23:31:22.153Z,98843.11
2017-10-06T23:33:48.465Z,98838.53
2017-10-06T23:36:14.777Z,98836.67
2017-10-06T23:38:41.056Z,98837.29
2017-10-06T23:41:07.361Z,98837.95
2017-10-06T23:43:33.594Z,98827.66
2017-10-06T23:45:59.852Z,98823.71
2017-10-06T23:48:26.167Z,98823.33
2017-10-06T23:50:52.409Z,98820.73
2017-10-06T23:53:18.626Z,98815.27
2017-10-06T23:55:44.862Z,98821.30
2017-10-06T23:58:11.191Z,98822.14
